Time;durP1;ratioP1;P1;durP2;ratioP2;P2;SDS_P1;SDS_P2;PMS_P1;PMS_P2;Temp;Humidity;BMP_temperature;BMP_pressure;BME280_temperature;BME280_humidity;BME280_pressure;Samples;Min_cycle;Max_cycle;Signal;HPM_P1;HPM_P2
2023/08/31 00:02:04;;;;;;;;;;;;;;;15.92;52.89;100743.28;5048982;27;108830;-69
2023/08/31 00:04:31;;;;;;;;;;;;;;;15.90;52.97;100739.88;5050757;27;125152;-68
2023/08/31 00:06:58;;;;;;;;;;;;;;;15.88;53.12;100747.13;5058617;27;124040;-68
2023/08/31 00:09:25;;;;;;;;;;;;;;;15.86;53.00;100733.00;5034746;27;109295;-69
2023/08/31 00:11:52;;;;;;;;;;;;;;;15.85;53.06;100742.00;5041534;27;108428;-69
2023/08/31 00:14:19;;;;;;;;;;;;;;;15.83;53.05;100733.25;5030925;27;124160;-68
2023/08/31 00:16:46;;;;;;;;;;;;;;;15.79;53.22;100743.28;5043554;27;123910;-69
2023/08/31 00:19:14;;;;;;;;;;;;;;;15.77;53.09;100740.72;5048809;27;109544;-69
2023/08/31 00:21:42;;;;;;;;;;;;;;;15.75;53.20;100742.63;5054148;27;109438;-69
2023/08/31 00:24:12;;;;;;;;;;;;;;;15.73;53.27;100744.56;5057918;27;124148;-68
2023/08/31 00:26:42;;;;;;;;;;;;;;;15.71;53.08;100741.09;5028383;27;123898;-68
2023/08/31 00:29:10;;;;;;;;;;;;;;;15.70;53.25;100744.72;5052571;27;110314;-68
2023/08/31 00:31:38;;;;;;;;;;;;;;;15.66;53.13;100743.22;5066482;27;110003;-68
2023/08/31 00:34:07;;;;;;;;;;;;;;;15.64;53.08;100739.81;5045415;27;124341;-68
2023/08/31 00:36:34;;;;;;;;;;;;;;;15.61;53.21;100745.34;5053767;27;125031;-68
2023/08/31 00:39:10;;;;;;;;;;;;;;;15.59;53.27;100741.94;5031902;27;108537;-68
2023/08/31 00:41:39;;;;;;;;;;;;;;;15.56;53.28;100740.31;5035964;27;107794;-68
2023/08/31 00:44:06;;;;;;;;;;;;;;;15.54;53.37;100738.72;5046350;27;124513;-68
2023/08/31 00:46:34;;;;;;;;;;;;;;;15.53;53.40;100742.34;5048022;27;124914;-68
2023/08/31 00:49:03;;;;;;;;;;;;;;;15.51;53.27;100744.25;5039167;27;108623;-68
2023/08/31 00:51:30;;;;;;;;;;;;;;;15.50;53.24;100747.88;5053197;27;109160;-68
2023/08/31 00:53:59;;;;;;;;;;;;;;;15.49;53.43;100741.69;5032072;28;123322;-69
2023/08/31 00:56:26;;;;;;;;;;;;;;;15.49;53.34;100735.50;5026405;27;123175;-68
2023/08/31 00:58:54;;;;;;;;;;;;;;;15.49;53.32;100746.19;5033376;27;109532;-68
2023/08/31 01:01:41;;;;;;;;;;;;;;;15.48;53.54;100744.47;5028883;27;107249;-68
2023/08/31 01:04:25;;;;;;;;;;;;;;;15.46;53.49;100741.03;5026645;27;122357;-69
2023/08/31 01:07:04;;;;;;;;;;;;;;;15.46;53.34;100741.03;5041199;27;124430;-68
2023/08/31 01:09:36;;;;;;;;;;;;;;;15.45;53.37;100739.34;5033707;27;109737;-68
2023/08/31 01:12:11;;;;;;;;;;;;;;;15.45;53.41;100728.66;5027018;27;107875;-69
2023/08/31 01:14:44;;;;;;;;;;;;;;;15.47;53.52;100742.75;5053730;27;124454;-68
2023/08/31 01:17:12;;;;;;;;;;;;;;;15.45;53.37;100739.34;5038157;27;122739;-68
2023/08/31 01:19:46;;;;;;;;;;;;;;;15.44;53.58;100742.97;5047005;27;110305;-68
2023/08/31 01:22:21;;;;;;;;;;;;;;;15.46;53.42;100741.03;5039601;27;108713;-69
2023/08/31 01:24:50;;;;;;;;;;;;;;;15.45;53.47;100747.34;5040712;27;124434;-68
2023/08/31 01:27:17;;;;;;;;;;;;;;;15.45;53.47;100744.69;5014640;27;122919;-68
2023/08/31 01:29:44;;;;;;;;;;;;;;;15.43;53.59;100746.59;5054754;27;109227;-68
2023/08/31 01:32:12;;;;;;;;;;;;;;;15.44;53.64;100758.97;5042503;27;107525;-68
2023/08/31 01:34:39;;;;;;;;;;;;;;;15.44;53.78;100764.31;5046863;27;124607;-68
2023/08/31 01:37:10;;;;;;;;;;;;;;;15.45;53.49;100766.03;5055728;27;124211;-68
2023/08/31 01:39:47;;;;;;;;;;;;;;;15.45;53.57;100766.88;5032289;27;108328;-68
2023/08/31 01:42:16;;;;;;;;;;;;;;;15.46;53.71;100757.91;5038983;27;108321;-68
2023/08/31 01:44:48;;;;;;;;;;;;;;;15.47;53.68;100753.44;5049936;27;124371;-68
2023/08/31 01:47:16;;;;;;;;;;;;;;;15.50;53.96;100769.22;5050044;27;125052;-68
2023/08/31 01:49:44;;;;;;;;;;;;;;;15.52;53.60;100767.31;5024574;27;108289;-68
2023/08/31 01:52:11;;;;;;;;;;;;;;;15.53;53.87;100758.34;5049773;27;109203;-68
2023/08/31 01:54:38;;;;;;;;;;;;;;;15.56;54.02;100755.50;5045373;27;123873;-68
2023/08/31 01:57:06;;;;;;;;;;;;;;;15.57;53.79;100771.38;5034016;28;123229;-68
2023/08/31 01:59:43;;;;;;;;;;;;;;;15.58;53.78;100757.09;5021466;27;108934;-68
2023/08/31 02:02:10;;;;;;;;;;;;;;;15.60;53.86;100765.00;5041479;27;107990;-68
2023/08/31 02:04:37;;;;;;;;;;;;;;;15.62;53.55;100752.41;5020892;28;123912;-68
2023/08/31 02:07:04;;;;;;;;;;;;;;;15.64;53.90;100761.16;5042057;27;123734;-68
2023/08/31 02:09:33;;;;;;;;;;;;;;;15.64;53.87;100755.81;5037537;27;110206;-68
2023/08/31 02:12:00;;;;;;;;;;;;;;;15.65;53.94;100752.22;5035270;27;108770;-68
2023/08/31 02:14:29;;;;;;;;;;;;;;;15.68;54.06;100760.00;5036233;27;123079;-68
2023/08/31 02:16:57;;;;;;;;;;;;;;;15.70;53.85;100749.22;5034451;27;123018;-68
2023/08/31 02:19:26;;;;;;;;;;;;;;;15.72;53.91;100750.81;5033392;27;108674;-68
2023/08/31 02:21:53;;;;;;;;;;;;;;;15.75;53.95;100747.97;5024150;27;108170;-68
2023/08/31 02:24:20;;;;;;;;;;;;;;;15.77;54.01;100750.53;5042359;27;123456;-68
2023/08/31 02:26:48;;;;;;;;;;;;;;;15.78;54.03;100757.56;5031446;27;123902;-68
2023/08/31 02:29:15;;;;;;;;;;;;;;;15.80;53.95;100760.16;5047601;27;109259;-68
2023/08/31 02:31:42;;;;;;;;;;;;;;;15.80;54.05;100754.81;5040676;27;108149;-68
2023/08/31 02:34:09;;;;;;;;;;;;;;;15.82;53.90;100744.88;5037156;27;123285;-68
2023/08/31 02:36:36;;;;;;;;;;;;;;;15.83;53.97;100754.59;5050184;27;124347;-68
2023/08/31 02:39:03;;;;;;;;;;;;;;;15.83;54.01;100754.59;5032189;27;108297;-68
2023/08/31 02:41:30;;;;;;;;;;;;;;;15.82;53.99;100742.19;5014890;27;107632;-68
2023/08/31 02:43:57;;;;;;;;;;;;;;;15.83;54.11;100754.59;5050823;27;124674;-68
2023/08/31 02:46:25;;;;;;;;;;;;;;;15.84;53.96;100750.97;5030745;27;123219;-68
2023/08/31 02:48:52;;;;;;;;;;;;;;;15.85;53.92;100752.69;5033160;27;108625;-68
2023/08/31 02:51:20;;;;;;;;;;;;;;;15.86;54.14;100749.03;5037721;27;107989;-68
2023/08/31 02:53:47;;;;;;;;;;;;;;;15.88;54.07;100763.13;5034170;27;124381;-68
2023/08/31 02:56:14;;;;;;;;;;;;;;;15.89;54.02;100759.53;5040854;27;124371;-68
2023/08/31 02:58:41;;;;;;;;;;;;;;;15.89;54.25;100765.72;5029510;27;109666;-68
2023/08/31 03:01:12;;;;;;;;;;;;;;;15.91;54.17;100762.94;5036883;27;108030;-68
2023/08/31 03:03:45;;;;;;;;;;;;;;;15.92;54.09;100749.47;5020471;27;123453;-68
2023/08/31 03:06:15;;;;;;;;;;;;;;;15.94;54.27;100752.06;5047750;27;124736;-68
2023/08/31 03:08:42;;;;;;;;;;;;;;;15.95;54.09;100753.75;5053596;27;110304;-68
2023/08/31 03:11:09;;;;;;;;;;;;;;;15.97;54.08;100757.16;5042306;27;107674;-68
2023/08/31 03:13:36;;;;;;;;;;;;;;;15.99;54.03;100765.06;5054602;27;124774;-68
2023/08/31 03:16:03;;;;;;;;;;;;;;;16.00;54.17;100759.63;5038786;27;124442;-68
2023/08/31 03:18:30;;;;;;;;;;;;;;;15.99;54.25;100760.59;5053233;27;109527;-68
2023/08/31 03:20:57;;;;;;;;;;;;;;;15.99;54.17;100759.72;5033889;28;107913;-68
2023/08/31 03:23:25;;;;;;;;;;;;;;;15.95;54.10;100761.75;5048425;27;124337;-68
2023/08/31 03:25:52;;;;;;;;;;;;;;;15.93;54.08;100748.50;5035915;27;123800;-68
2023/08/31 03:28:20;;;;;;;;;;;;;;;15.92;54.07;100753.97;5032370;27;108810;-68
2023/08/31 03:30:54;;;;;;;;;;;;;;;15.90;54.06;100740.72;5052853;27;108356;-68
2023/08/31 03:33:22;;;;;;;;;;;;;;;15.91;54.26;100746.91;5048070;27;124192;-68
2023/08/31 03:35:49;;;;;;;;;;;;;;;15.90;54.13;100753.22;5040109;27;124956;-68
2023/08/31 03:38:17;;;;;;;;;;;;;;;15.89;54.30;100754.19;5043564;27;108614;-68
2023/08/31 03:40:52;;;;;;;;;;;;;;;15.89;53.95;100754.19;5050676;27;109201;-69
2023/08/31 03:43:19;;;;;;;;;;;;;;;15.88;54.24;100758.69;5030615;28;123842;-68
2023/08/31 03:45:46;;;;;;;;;;;;;;;15.87;54.21;100750.75;5028974;27;123229;-68
2023/08/31 03:48:13;;;;;;;;;;;;;;;15.85;54.08;100758.03;5027403;27;109312;-68
2023/08/31 03:50:40;;;;;;;;;;;;;;;15.83;54.29;100754.59;5031295;27;109071;-68
2023/08/31 03:53:08;;;;;;;;;;;;;;;15.82;54.25;100759.06;5043399;27;123252;-68
2023/08/31 03:55:37;;;;;;;;;;;;;;;15.81;54.13;100756.53;5051979;27;124337;-68
2023/08/31 03:58:04;;;;;;;;;;;;;;;15.80;54.09;100760.16;5042440;27;108531;-68
2023/08/31 04:00:31;;;;;;;;;;;;;;;15.76;54.08;100755.03;5029173;27;108110;-68
2023/08/31 04:02:58;;;;;;;;;;;;;;;15.73;54.09;100759.69;5036560;27;123413;-68
2023/08/31 04:05:32;;;;;;;;;;;;;;;15.71;54.27;100762.47;5052560;27;124465;-68
2023/08/31 04:08:00;;;;;;;;;;;;;;;15.68;54.25;100757.31;5034123;27;110264;-68
2023/08/31 04:10:27;;;;;;;;;;;;;;;15.66;54.17;100764.59;5045459;27;108934;-68
2023/08/31 04:12:54;;;;;;;;;;;;;;;15.63;54.25;100759.44;5041156;27;124303;-69
2023/08/31 04:15:21;;;;;;;;;;;;;;;15.62;54.17;100763.09;5035794;27;123001;-69
2023/08/31 04:17:49;;;;;;;;;;;;;;;15.60;54.31;100775.69;5031889;27;108277;-69
2023/08/31 04:20:17;;;;;;;;;;;;;;;15.59;54.29;100765.94;5050037;27;108392;-69
2023/08/31 04:22:44;;;;;;;;;;;;;;;15.56;54.33;100774.19;5048631;27;124216;-69
2023/08/31 04:25:11;;;;;;;;;;;;;;;15.56;54.40;100774.19;5028728;27;123405;-69
2023/08/31 04:27:40;;;;;;;;;;;;;;;15.53;54.36;100779.72;5049569;27;109555;-69
2023/08/31 04:30:07;;;;;;;;;;;;;;;15.51;54.23;100776.28;5045746;27;108946;-69
2023/08/31 04:32:35;;;;;;;;;;;;;;;15.50;54.50;100779.91;5026154;27;124219;-69
2023/08/31 04:35:05;;;;;;;;;;;;;;;15.49;54.31;100788.91;5028966;27;124212;-69
2023/08/31 04:37:33;;;;;;;;;;;;;;;15.46;54.51;100789.09;5046535;27;110332;-69
2023/08/31 04:40:00;;;;;;;;;;;;;;;15.44;54.43;100785.66;5058184;27;109689;-69
2023/08/31 04:42:27;;;;;;;;;;;;;;;15.44;54.53;100793.66;5056305;27;124597;-69
2023/08/31 04:44:54;;;;;;;;;;;;;;;15.42;54.42;100792.91;5047236;27;124267;-69
2023/08/31 04:47:21;;;;;;;;;;;;;;;15.41;54.42;100796.53;5056234;27;109381;-69
2023/08/31 04:49:49;;;;;;;;;;;;;;;15.39;54.60;100799.31;5054823;27;109782;-69
2023/08/31 04:52:16;;;;;;;;;;;;;;;15.38;54.37;100798.44;5047247;27;124698;-69
2023/08/31 04:54:43;;;;;;;;;;;;;;;15.37;54.44;100802.09;5047508;27;124455;-69
2023/08/31 04:57:10;;;;;;;;;;;;;;;15.36;54.66;100808.38;5053776;27;109251;-69
2023/08/31 04:59:37;;;;;;;;;;;;;;;15.36;54.48;100816.38;5047582;27;108528;-69
2023/08/31 05:02:04;;;;;;;;;;;;;;;15.36;54.57;100816.38;5056782;27;125088;-69
2023/08/31 05:04:31;;;;;;;;;;;;;;;15.36;54.47;100820.88;5055416;27;124333;-69
2023/08/31 05:06:59;;;;;;;;;;;;;;;15.37;54.50;100834.13;5046062;27;109886;-69
2023/08/31 05:09:26;;;;;;;;;;;;;;;15.38;54.57;100829.63;5037363;27;107647;-69
2023/08/31 05:11:53;;;;;;;;;;;;;;;15.37;54.73;100834.13;5041126;27;124458;-69
2023/08/31 05:14:20;;;;;;;;;;;;;;;15.40;54.79;100837.53;5041044;27;123987;-69
2023/08/31 05:16:47;;;;;;;;;;;;;;;15.41;54.65;100844.56;5054435;27;109362;-69
2023/08/31 05:19:15;;;;;;;;;;;;;;;15.42;54.58;100840.97;5035332;27;108705;-69
2023/08/31 05:21:42;;;;;;;;;;;;;;;15.43;54.63;100854.22;5040034;27;124699;-69
2023/08/31 05:24:09;;;;;;;;;;;;;;;15.45;54.73;100856.78;5046860;27;124284;-69
2023/08/31 05:26:36;;;;;;;;;;;;;;;15.46;54.83;100853.16;5059178;27;110644;-69
2023/08/31 05:29:05;;;;;;;;;;;;;;;15.48;54.65;100853.91;5069723;27;109961;-69
2023/08/31 05:31:33;;;;;;;;;;;;;;;15.51;54.62;100867.91;5040882;27;123255;-69
2023/08/31 05:34:00;;;;;;;;;;;;;;;15.52;54.78;100852.72;5048461;27;124917;-69
2023/08/31 05:36:27;;;;;;;;;;;;;;;15.54;54.66;100864.19;5039774;27;109310;-69
2023/08/31 05:38:54;;;;;;;;;;;;;;;15.56;54.68;100854.28;5046093;27;109092;-69
2023/08/31 05:41:21;;;;;;;;;;;;;;;15.58;54.70;100863.03;5050485;27;124233;-69
2023/08/31 05:43:48;;;;;;;;;;;;;;;15.60;54.72;100861.13;5040946;27;122967;-69
2023/08/31 05:46:15;;;;;;;;;;;;;;;15.64;54.76;100864.44;5060848;27;109336;-69
2023/08/31 05:48:42;;;;;;;;;;;;;;;15.66;54.72;100866.03;5053841;27;108517;-69
2023/08/31 05:51:10;;;;;;;;;;;;;;;15.68;54.80;100866.78;5025394;27;123178;-69
2023/08/31 05:53:37;;;;;;;;;;;;;;;15.68;54.70;100869.47;5017724;27;123974;-69
2023/08/31 05:56:04;;;;;;;;;;;;;;;15.69;54.90;100865.84;5057957;27;109519;-69
2023/08/31 05:58:33;;;;;;;;;;;;;;;15.70;54.85;100862.19;5057547;27;109183;-69
2023/08/31 06:01:03;;;;;;;;;;;;;;;15.72;54.73;100868.28;5049441;27;124280;-69
2023/08/31 06:03:31;;;;;;;;;;;;;;;15.74;54.78;100869.06;5054713;27;124210;-69
2023/08/31 06:05:59;;;;;;;;;;;;;;;15.75;54.94;100870.81;5028359;27;110154;-70
2023/08/31 06:08:26;;;;;;;;;;;;;;;15.81;54.96;100882.03;5049059;27;108854;-69
2023/08/31 06:10:53;;;;;;;;;;;;;;;15.83;54.95;100872.13;5038454;27;124236;-69
2023/08/31 06:13:20;;;;;;;;;;;;;;;15.86;54.94;100882.56;5048378;27;123818;-69
2023/08/31 06:15:47;;;;;;;;;;;;;;;15.89;55.06;100882.38;5052255;27;110524;-69
2023/08/31 06:18:14;;;;;;;;;;;;;;;15.93;54.92;100883.88;5053854;27;109428;-69
2023/08/31 06:20:41;;;;;;;;;;;;;;;15.96;55.02;100883.69;5056042;27;124234;-70
2023/08/31 06:23:10;;;;;;;;;;;;;;;16.03;55.01;100885.00;5055769;27;124230;-69
2023/08/31 06:25:37;;;;;;;;;;;;;;;16.10;55.05;100896.09;5050389;27;109579;-69
2023/08/31 06:28:08;;;;;;;;;;;;;;;16.18;55.21;100892.91;5054625;27;108860;-68
2023/08/31 06:30:35;;;;;;;;;;;;;;;16.27;55.18;100892.28;5059918;27;124549;-68
2023/08/31 06:33:03;;;;;;;;;;;;;;;16.35;55.16;100889.97;5054300;27;124313;-68
2023/08/31 06:35:33;;;;;;;;;;;;;;;16.42;55.19;100893.91;5035133;27;109444;-68
2023/08/31 06:38:01;;;;;;;;;;;;;;;16.48;55.08;100890.84;5049253;27;109095;-69
2023/08/31 06:40:28;;;;;;;;;;;;;;;16.53;54.86;100894.03;5047460;27;124378;-68
2023/08/31 06:42:55;;;;;;;;;;;;;;;16.59;54.95;100894.56;5054868;27;124628;-68
2023/08/31 06:45:22;;;;;;;;;;;;;;;16.70;55.15;100889.31;5054568;27;109610;-69
2023/08/31 06:47:50;;;;;;;;;;;;;;;16.79;55.27;100894.03;5052560;27;108970;-69
2023/08/31 06:50:17;;;;;;;;;;;;;;;16.89;55.15;100895.13;5044612;27;123989;-70
2023/08/31 06:52:46;;;;;;;;;;;;;;;16.98;55.20;100895.44;5038560;27;124668;-69
2023/08/31 06:55:13;;;;;;;;;;;;;;;17.05;55.21;100899.41;5049137;27;110000;-69
2023/08/31 06:57:41;;;;;;;;;;;;;;;17.09;55.00;100907.09;5038343;27;108012;-69
2023/08/31 07:00:09;;;;;;;;;;;;;;;17.14;55.07;100896.06;5033594;27;123210;-69
2023/08/31 07:02:37;;;;;;;;;;;;;;;17.21;55.16;100900.00;5032927;27;124790;-69
2023/08/31 07:05:06;;;;;;;;;;;;;;;17.30;55.17;100910.03;5041234;27;110921;-68
2023/08/31 07:07:33;;;;;;;;;;;;;;;17.45;55.26;100909.91;5041430;27;108778;-69
2023/08/31 07:10:00;;;;;;;;;;;;;;;17.62;55.44;100909.50;5046393;27;125085;-69
2023/08/31 07:12:27;;;;;;;;;;;;;;;17.81;55.60;100914.34;5056676;27;124407;-69
2023/08/31 07:14:55;;;;;;;;;;;;;;;17.96;55.46;100923.09;5040405;27;109509;-69
2023/08/31 07:17:22;;;;;;;;;;;;;;;18.07;55.23;100917.78;5038368;27;108395;-69
2023/08/31 07:19:50;;;;;;;;;;;;;;;18.13;54.97;100921.84;5053497;27;124443;-68
2023/08/31 07:22:17;;;;;;;;;;;;;;;18.19;55.02;100920.50;5056758;27;124137;-69
2023/08/31 07:24:45;;;;;;;;;;;;;;;18.26;55.13;100916.41;5056997;27;108815;-67
2023/08/31 07:27:12;;;;;;;;;;;;;;;18.38;55.21;100926.16;5054510;27;108835;-68
2023/08/31 07:29:39;;;;;;;;;;;;;;;18.51;55.11;100930.59;5060037;27;124663;-69
2023/08/31 07:32:06;;;;;;;;;;;;;;;18.63;55.23;100916.25;5061786;27;124023;-69
2023/08/31 07:34:33;;;;;;;;;;;;;;;18.76;55.35;100922.38;5054685;27;109559;-69
2023/08/31 07:37:00;;;;;;;;;;;;;;;18.91;55.24;100920.34;5034276;27;107708;-69
2023/08/31 07:39:27;;;;;;;;;;;;;;;19.01;55.15;100932.06;5045883;27;125038;-69
2023/08/31 07:41:54;;;;;;;;;;;;;;;19.08;54.87;100929.75;5045125;27;123312;-69
2023/08/31 07:44:21;;;;;;;;;;;;;;;19.14;54.79;100931.94;5044621;27;109573;-69
2023/08/31 07:46:48;;;;;;;;;;;;;;;19.21;54.77;100927.78;5038914;27;108587;-69
2023/08/31 07:49:17;;;;;;;;;;;;;;;19.30;54.88;100931.53;5047984;27;124660;-69
2023/08/31 07:51:44;;;;;;;;;;;;;;;19.39;54.90;100933.50;5045794;27;123246;-69
2023/08/31 07:54:16;;;;;;;;;;;;;;;19.52;54.94;100936.03;5053227;27;110722;-69
2023/08/31 07:56:44;;;;;;;;;;;;;;;19.68;55.11;100940.16;5041066;27;110315;-70
2023/08/31 07:59:11;;;;;;;;;;;;;;;19.84;55.04;100936.13;5050465;27;124352;-69
2023/08/31 08:01:38;;;;;;;;;;;;;;;19.97;55.08;100935.09;5044933;27;124027;-69
2023/08/31 08:04:05;;;;;;;;;;;;;;;20.11;55.03;100942.00;5032990;27;109701;-69
2023/08/31 08:06:32;;;;;;;;;;;;;;;20.26;54.96;100946.09;5052468;27;108839;-69
2023/08/31 08:08:59;;;;;;;;;;;;;;;20.39;54.98;100944.06;5048011;27;124710;-70
2023/08/31 08:11:27;;;;;;;;;;;;;;;20.54;54.90;100938.38;5046392;27;123193;-69
2023/08/31 08:13:55;;;;;;;;;;;;;;;20.68;54.72;100951.53;5040453;27;109603;-69
2023/08/31 08:16:22;;;;;;;;;;;;;;;20.79;54.75;100943.38;5038422;27;109034;-69
2023/08/31 08:18:50;;;;;;;;;;;;;;;20.93;54.83;100952.09;5052117;27;124657;-69
2023/08/31 08:21:20;;;;;;;;;;;;;;;21.04;54.64;100951.13;5034342;27;125873;-70
2023/08/31 08:23:50;;;;;;;;;;;;;;;21.14;54.65;100946.66;5054239;27;109709;-69
2023/08/31 08:26:17;;;;;;;;;;;;;;;21.24;54.51;100957.47;5059738;27;108681;-69
2023/08/31 08:28:45;;;;;;;;;;;;;;;21.32;54.57;100945.03;5049987;27;124136;-69
2023/08/31 08:31:12;;;;;;;;;;;;;;;21.44;54.60;100945.81;5050542;27;123319;-69
2023/08/31 08:33:40;;;;;;;;;;;;;;;21.57;54.58;100954.50;5041797;27;109615;-69
2023/08/31 08:36:07;;;;;;;;;;;;;;;21.66;54.36;100946.56;5059286;27;109008;-70
2023/08/31 08:38:35;;;;;;;;;;;;;;;21.75;54.35;100951.13;5042028;27;124724;-70
2023/08/31 08:41:06;;;;;;;;;;;;;;;21.82;54.30;100952.28;5053597;27;124224;-69
2023/08/31 08:43:42;;;;;;;;;;;;;;;21.91;54.24;100951.44;5045566;27;111155;-69
2023/08/31 08:46:09;;;;;;;;;;;;;;;22.01;54.29;100956.00;5030998;28;109466;-69
2023/08/31 08:48:37;;;;;;;;;;;;;;;22.06;54.26;100949.19;5047214;27;124555;-69
2023/08/31 08:51:05;;;;;;;;;;;;;;;22.12;54.08;100956.69;5057614;27;124277;-69
2023/08/31 08:53:39;;;;;;;;;;;;;;;22.19;53.99;100959.69;5046597;27;109812;-69
2023/08/31 08:56:06;;;;;;;;;;;;;;;22.27;54.02;100957.16;5047205;27;108670;-69
2023/08/31 08:58:33;;;;;;;;;;;;;;;22.34;54.07;100963.69;5055993;27;124472;-69
2023/08/31 09:01:02;;;;;;;;;;;;;;;22.43;54.11;100950.34;5040188;27;124585;-69
2023/08/31 09:03:29;;;;;;;;;;;;;;;22.52;54.08;100960.25;5047839;27;109592;-69
2023/08/31 09:05:58;;;;;;;;;;;;;;;22.54;53.92;100952.88;5055307;27;109237;-69
2023/08/31 09:08:27;;;;;;;;;;;;;;;22.55;53.78;100954.59;5032380;27;124150;-69
2023/08/31 09:11:01;;;;;;;;;;;;;;;22.58;53.69;100958.84;5055366;27;125819;-68
2023/08/31 09:13:29;;;;;;;;;;;;;;;22.61;53.70;100958.56;5022593;27;109531;-70
2023/08/31 09:15:57;;;;;;;;;;;;;;;22.64;53.87;100964.53;5029816;27;108342;-69
2023/08/31 09:18:24;;;;;;;;;;;;;;;22.71;53.79;100960.22;5053655;27;124620;-69
2023/08/31 09:20:52;;;;;;;;;;;;;;;22.81;53.81;100964.75;5041364;27;124291;-69
2023/08/31 09:23:19;;;;;;;;;;;;;;;22.87;53.54;100958.78;5043062;27;109744;-69
2023/08/31 09:25:52;;;;;;;;;;;;;;;22.90;53.63;100966.59;5032554;27;108395;-69
2023/08/31 09:28:26;;;;;;;;;;;;;;;22.93;53.59;100963.59;5051934;27;123919;-70
2023/08/31 09:31:04;;;;;;;;;;;;;;;22.99;53.50;100967.56;5047083;27;124534;-69
2023/08/31 09:33:31;;;;;;;;;;;;;;;23.05;53.59;100967.84;5051700;27;110448;-69
2023/08/31 09:36:03;;;;;;;;;;;;;;;23.16;53.73;100968.66;5046397;27;110472;-69
2023/08/31 09:38:31;;;;;;;;;;;;;;;23.27;53.38;100977.44;5040178;27;123179;-69
2023/08/31 09:41:07;;;;;;;;;;;;;;;23.35;53.21;100979.38;5049190;27;124070;-69
2023/08/31 09:43:34;;;;;;;;;;;;;;;23.38;53.15;100971.00;5062702;27;109516;-69
2023/08/31 09:46:02;;;;;;;;;;;;;;;23.45;53.39;100974.81;5053898;27;109252;-69
2023/08/31 09:48:30;;;;;;;;;;;;;;;23.48;52.94;100960.97;5045947;27;124716;-69
2023/08/31 09:50:57;;;;;;;;;;;;;;;23.50;52.84;100975.19;5039769;27;123831;-70
2023/08/31 09:53:24;;;;;;;;;;;;;;;23.55;52.89;100965.78;5031816;27;108115;-69
2023/08/31 09:55:57;;;;;;;;;;;;;;;23.63;53.01;100972.13;5050653;27;109109;-69
2023/08/31 09:58:27;;;;;;;;;;;;;;;23.70;52.88;100978.66;5053533;27;124325;-69
2023/08/31 10:00:55;;;;;;;;;;;;;;;23.71;52.75;100979.47;5043613;27;124045;-69
2023/08/31 10:03:23;;;;;;;;;;;;;;;23.69;52.41;100976.09;5039491;27;109384;-69
2023/08/31 10:05:50;;;;;;;;;;;;;;;23.62;52.35;100972.28;5061349;27;108979;-69
2023/08/31 10:08:19;;;;;;;;;;;;;;;23.52;52.26;100975.03;5054847;27;123225;-69
2023/08/31 10:10:46;;;;;;;;;;;;;;;23.45;52.41;100980.22;5054862;27;124261;-69
2023/08/31 10:13:14;;;;;;;;;;;;;;;23.40;52.58;100987.91;5050923;27;109610;-70
2023/08/31 10:15:43;;;;;;;;;;;;;;;23.38;52.54;100986.38;5039831;27;108870;-69
2023/08/31 10:18:10;;;;;;;;;;;;;;;23.32;52.19;100980.56;5041602;27;124199;-69
2023/08/31 10:20:37;;;;;;;;;;;;;;;23.28;52.41;100983.69;5048295;27;125392;-69
2023/08/31 10:23:06;;;;;;;;;;;;;;;23.25;52.19;100973.19;5046968;27;110630;-70
2023/08/31 10:26:03;;;;;;;;;;;;;;;23.18;52.15;100977.47;5054011;27;109608;-69
2023/08/31 10:28:38;;;;;;;;;;;;;;;23.10;52.19;100970.97;5038738;27;123924;-69
2023/08/31 10:31:06;;;;;;;;;;;;;;;23.12;52.50;100968.97;5051872;27;124177;-70
2023/08/31 10:33:42;;;;;;;;;;;;;;;23.17;52.63;100973.06;5052564;27;109761;-70
2023/08/31 10:36:19;;;;;;;;;;;;;;;23.21;52.37;100972.63;5059214;27;108934;-70
2023/08/31 10:38:55;;;;;;;;;;;;;;;23.28;52.40;100962.06;5035006;27;123423;-70
2023/08/31 10:41:24;;;;;;;;;;;;;;;23.33;52.74;100954.38;5030982;27;123609;-69
2023/08/31 10:43:57;;;;;;;;;;;;;;;23.41;52.66;100951.75;5053756;27;110184;-69
2023/08/31 10:46:27;;;;;;;;;;;;;;;23.51;52.50;100947.16;5029914;28;108611;-69
2023/08/31 10:48:54;;;;;;;;;;;;;;;23.64;52.89;100954.91;5055567;27;124427;-69
2023/08/31 10:51:23;;;;;;;;;;;;;;;23.74;52.55;100962.97;5053685;27;124767;-70
2023/08/31 10:53:50;;;;;;;;;;;;;;;23.80;52.53;100951.56;5044859;27;109117;-69
2023/08/31 10:56:18;;;;;;;;;;;;;;;23.85;52.50;100954.66;5058037;27;108472;-70
2023/08/31 10:59:11;;;;;;;;;;;;;;;23.90;52.09;100952.38;5026989;27;124414;-69
2023/08/31 11:01:58;;;;;;;;;;;;;;;23.99;52.16;100955.13;5053130;27;124191;-69
2023/08/31 11:04:27;;;;;;;;;;;;;;;24.09;52.18;100948.66;5042150;27;109749;-69
2023/08/31 11:07:14;;;;;;;;;;;;;;;24.21;52.42;100943.84;5021304;27;107783;-69
2023/08/31 11:09:41;;;;;;;;;;;;;;;24.39;52.54;100956.50;5047070;27;124237;-69
2023/08/31 11:12:09;;;;;;;;;;;;;;;24.49;51.98;100941.88;5047536;27;124499;-70
2023/08/31 11:14:36;;;;;;;;;;;;;;;24.58;52.04;100945.53;5048834;27;110336;-71
2023/08/31 11:17:04;;;;;;;;;;;;;;;24.67;52.03;100949.97;5055146;27;109581;-69
2023/08/31 11:19:34;;;;;;;;;;;;;;;24.74;51.58;100949.38;5046091;27;124671;-70
2023/08/31 11:22:03;;;;;;;;;;;;;;;24.78;51.69;100950.75;5045130;27;124340;-69
2023/08/31 11:24:30;;;;;;;;;;;;;;;24.82;51.28;100952.13;5040566;27;109834;-70
2023/08/31 11:26:59;;;;;;;;;;;;;;;24.82;51.15;100952.13;5054895;27;108578;-69
2023/08/31 11:29:27;;;;;;;;;;;;;;;24.75;51.20;100953.75;5051895;27;124151;-69
2023/08/31 11:31:57;;;;;;;;;;;;;;;24.68;50.99;100951.69;5043452;27;124185;-69
2023/08/31 11:34:24;;;;;;;;;;;;;;;24.62;51.05;100952.34;5042052;27;108882;-69
2023/08/31 11:36:51;;;;;;;;;;;;;;;24.59;51.06;100958.06;5043119;27;109211;-69
2023/08/31 11:39:19;;;;;;;;;;;;;;;24.55;50.98;100972.94;5058090;27;124712;-69
2023/08/31 11:41:46;;;;;;;;;;;;;;;24.50;50.86;100980.63;5046497;27;124026;-69
2023/08/31 11:44:13;;;;;;;;;;;;;;;24.39;50.61;100979.03;5046076;27;108712;-69
2023/08/31 11:46:41;;;;;;;;;;;;;;;24.28;50.73;100966.59;5022187;27;108911;-69
2023/08/31 11:49:09;;;;;;;;;;;;;;;24.16;50.81;100970.53;5058740;27;124662;-69
2023/08/31 11:51:38;;;;;;;;;;;;;;;24.00;50.42;100978.50;5044807;27;124296;-69
2023/08/31 11:54:05;;;;;;;;;;;;;;;23.77;50.56;100978.91;5028407;27;109881;-69
2023/08/31 11:56:48;;;;;;;;;;;;;;;23.57;50.65;100982.72;5041361;27;108595;-69
2023/08/31 11:59:16;;;;;;;;;;;;;;;23.32;50.63;100985.13;5031754;28;123090;-69
2023/08/31 12:01:46;;;;;;;;;;;;;;;23.10;50.65;100989.88;5030004;27;96822;-69
2023/08/31 12:04:25;;;;;;;;;;;;;;;22.91;50.93;100979.94;5035448;27;109179;-69
2023/08/31 12:06:55;;;;;;;;;;;;;;;22.74;51.14;100984.25;5028369;27;109861;-69
2023/08/31 12:09:24;;;;;;;;;;;;;;;22.64;51.29;100986.13;5044017;27;125153;-69
2023/08/31 12:11:51;;;;;;;;;;;;;;;22.56;51.32;100977.88;5035271;28;124008;-69
2023/08/31 12:14:20;;;;;;;;;;;;;;;22.50;51.33;100989.25;5020299;27;108505;-69
2023/08/31 12:16:47;;;;;;;;;;;;;;;22.45;51.57;100986.13;5033214;27;109613;-69
2023/08/31 12:19:15;;;;;;;;;;;;;;;22.41;51.51;101001.75;5032834;27;124144;-69
2023/08/31 12:21:42;;;;;;;;;;;;;;;22.33;51.45;101010.56;5034282;28;124099;-68
2023/08/31 12:24:10;;;;;;;;;;;;;;;22.19;51.27;101013.66;5031672;28;109627;-67
2023/08/31 12:26:37;;;;;;;;;;;;;;;22.04;51.13;101015.03;5016346;28;108226;-67
2023/08/31 12:29:04;;;;;;;;;;;;;;;21.85;51.14;101011.34;5031975;27;124148;-67
2023/08/31 12:31:32;;;;;;;;;;;;;;;21.69;51.34;101013.69;5033384;27;124252;-67
2023/08/31 12:34:00;;;;;;;;;;;;;;;21.55;51.42;101010.38;5034858;27;109676;-70
2023/08/31 12:36:27;;;;;;;;;;;;;;;21.46;51.64;101011.19;5034458;28;108729;-69